createdAt,value
2019-02-02T00:02:27.922Z,52.17
2019-02-02T00:07:33.175Z,50.37
2019-02-02T00:12:39.356Z,53.93
2019-02-02T00:17:44.751Z,54.80
2019-02-02T00:22:50.318Z,51.83
2019-02-02T00:27:55.737Z,59.43
2019-02-02T00:33:01.918Z,57.57
2019-02-02T00:38:08.653Z,61.17
2019-02-02T00:43:13.813Z,57.27
2019-02-02T00:48:19.475Z,60.90
2019-02-02T00:53:24.844Z,58.57
2019-02-02T00:58:31.242Z,59.90
2019-02-02T01:03:37.380Z,54.67
2019-02-02T01:08:45.579Z,55.70
2019-02-02T01:13:51.974Z,48.27
2019-02-02T01:18:57.127Z,48.13
2019-02-02T01:24:02.493Z,51.00
2019-02-02T01:29:08.357Z,52.67
2019-02-02T01:34:13.541Z,51.93
2019-02-02T01:39:19.785Z,53.07
2019-02-02T01:44:24.937Z,50.43
2019-02-02T01:49:31.127Z,48.17
2019-02-02T01:54:38.381Z,48.67
2019-02-02T01:59:43.532Z,49.97
2019-02-02T02:04:49.506Z,63.90
2019-02-02T02:09:54.686Z,61.67
2019-02-02T02:14:59.931Z,51.63
2019-02-02T02:20:06.575Z,55.60
2019-02-02T02:25:21.404Z,55.30
2019-02-02T02:30:27.289Z,62.10
2019-02-02T02:35:32.553Z,54.63
2019-02-02T02:40:37.714Z,65.50
2019-02-02T02:45:44.382Z,64.60
2019-02-02T02:50:49.681Z,60.07
2019-02-02T02:55:54.990Z,58.60
2019-02-02T03:01:00.497Z,58.87
2019-02-02T03:06:06.991Z,60.77
2019-02-02T03:11:12.167Z,49.97
2019-02-02T03:16:17.374Z,59.00
2019-02-02T03:21:24.440Z,56.83
2019-02-02T03:26:29.717Z,63.80
2019-02-02T03:31:34.972Z,63.53
2019-02-02T03:36:40.573Z,73.90
2019-02-02T03:41:46.129Z,56.67
2019-02-02T03:46:51.584Z,54.73
2019-02-02T03:51:57.535Z,65.20
2019-02-02T03:57:02.702Z,73.97
2019-02-02T04:02:08.029Z,72.33
2019-02-02T04:07:13.198Z,61.67
2019-02-02T04:12:18.409Z,70.30
2019-02-02T04:17:23.570Z,69.93
2019-02-02T04:22:29.128Z,68.03
2019-02-02T04:27:34.281Z,71.17
2019-02-02T04:32:39.765Z,71.60
2019-02-02T04:37:45.099Z,78.37
2019-02-02T04:42:50.259Z,75.37
2019-02-02T04:47:55.398Z,73.90
2019-02-02T04:53:00.831Z,66.20
2019-02-02T04:58:06.400Z,74.93
2019-02-02T05:03:12.162Z,98.50
2019-02-02T05:08:17.302Z,98.70
2019-02-02T05:13:22.445Z,104.90
2019-02-02T05:18:27.949Z,112.00
2019-02-02T05:23:33.123Z,114.83
2019-02-02T05:28:38.274Z,111.17
2019-02-02T05:33:45.368Z,117.10
2019-02-02T05:38:50.646Z,110.83
2019-02-02T05:43:55.745Z,118.30
2019-02-02T05:49:00.925Z,139.43
2019-02-02T05:54:06.097Z,146.50
2019-02-02T05:59:11.455Z,160.53
2019-02-02T06:04:16.538Z,154.87
2019-02-02T06:09:23.864Z,149.23
2019-02-02T06:14:28.974Z,143.67
2019-02-02T06:19:34.134Z,171.07
2019-02-02T06:24:40.001Z,149.87
2019-02-02T06:29:45.519Z,148.90
2019-02-02T06:34:50.522Z,103.10
2019-02-02T06:39:55.595Z,91.43
2019-02-02T06:45:00.594Z,103.37
2019-02-02T06:50:07.422Z,114.33
2019-02-02T06:55:13.304Z,100.27
2019-02-02T07:00:20.391Z,108.67
2019-02-02T07:05:26.098Z,126.27
2019-02-02T07:10:31.978Z,133.07
2019-02-02T07:15:37.132Z,104.77
2019-02-02T07:20:43.274Z,127.37
2019-02-02T07:25:48.417Z,110.67
2019-02-02T07:30:53.635Z,132.53
2019-02-02T07:35:59.456Z,99.77
2019-02-02T07:41:04.879Z,107.40
2019-02-02T07:46:14.990Z,105.00
2019-02-02T07:51:17.215Z,102.70
2019-02-02T07:56:22.365Z,111.37
2019-02-02T08:01:27.516Z,115.40
2019-02-02T08:06:32.586Z,110.50
2019-02-02T08:11:37.727Z,114.13
2019-02-02T08:16:43.246Z,110.57
2019-02-02T08:21:49.292Z,104.73
2019-02-02T08:26:54.525Z,114.27
2019-02-02T08:31:59.703Z,122.13
2019-02-02T08:37:04.975Z,135.57
2019-02-02T08:42:10.720Z,147.73
2019-02-02T08:47:16.218Z,144.47
2019-02-02T08:52:21.710Z,150.50
2019-02-02T08:57:27.066Z,120.47
2019-02-02T09:02:32.284Z,124.73
2019-02-02T09:07:38.640Z,136.90
2019-02-02T09:12:43.795Z,123.03
2019-02-02T09:17:49.047Z,129.30
2019-02-02T09:23:03.893Z,135.77
2019-02-02T09:28:03.333Z,125.63
2019-02-02T09:33:08.929Z,124.70
2019-02-02T09:38:14.084Z,114.23
2019-02-02T09:43:19.494Z,123.67
2019-02-02T09:48:25.799Z,119.00
2019-02-02T09:53:31.474Z,110.63
2019-02-02T09:58:36.629Z,117.10
2019-02-02T10:03:41.775Z,118.17
2019-02-02T10:08:46.935Z,113.60
2019-02-02T10:13:52.353Z,125.07
2019-02-02T10:18:58.930Z,114.80
2019-02-02T10:24:04.771Z,124.07
2019-02-02T10:29:10.258Z,115.03
2019-02-02T10:34:16.040Z,125.20
2019-02-02T10:39:21.964Z,119.10
2019-02-02T10:44:27.154Z,121.00
2019-02-02T10:49:32.382Z,127.47
2019-02-02T10:54:37.915Z,125.50
2019-02-02T10:59:43.777Z,126.57
2019-02-02T11:04:48.853Z,128.90
2019-02-02T11:09:54.001Z,134.17
2019-02-02T11:15:00.182Z,133.53
2019-02-02T11:20:07.462Z,125.73
2019-02-02T11:25:14.118Z,121.77
2019-02-02T11:30:19.315Z,129.03
2019-02-02T11:35:24.798Z,115.87
2019-02-02T11:40:31.942Z,99.30
2019-02-02T11:45:37.080Z,111.13
2019-02-02T11:50:43.132Z,99.63
2019-02-02T11:55:49.047Z,104.73
2019-02-02T12:00:55.032Z,109.63
2019-02-02T12:06:00.162Z,101.70
2019-02-02T12:11:05.313Z,107.67
2019-02-02T12:16:10.400Z,107.47
2019-02-02T12:21:15.551Z,107.67
2019-02-02T12:26:21.169Z,114.03
2019-02-02T12:31:26.769Z,103.47
2019-02-02T12:36:31.956Z,114.83
2019-02-02T12:41:38.182Z,100.87
2019-02-02T12:46:43.548Z,109.93
2019-02-02T12:51:48.687Z,114.67
2019-02-02T12:56:54.323Z,118.37
2019-02-02T13:01:59.656Z,120.70
2019-02-02T13:07:05.024Z,117.30
2019-02-02T13:12:10.304Z,112.00
2019-02-02T13:17:15.789Z,115.30
2019-02-02T13:22:20.890Z,110.07
2019-02-02T13:27:26.034Z,112.53
2019-02-02T13:32:31.218Z,108.07
2019-02-02T13:37:36.289Z,99.60
2019-02-02T13:42:41.839Z,102.87
2019-02-02T13:47:47.143Z,105.97
2019-02-02T13:52:52.612Z,107.87
2019-02-02T13:57:57.883Z,106.00
2019-02-02T14:03:03.924Z,97.13
2019-02-02T14:08:09.427Z,92.80
2019-02-02T14:13:14.562Z,96.03
2019-02-02T14:18:20.152Z,94.13
2019-02-02T14:23:25.287Z,103.53
2019-02-02T14:28:30.435Z,91.00
2019-02-02T14:33:35.568Z,102.03
2019-02-02T14:38:40.710Z,99.83
2019-02-02T14:43:45.801Z,115.13
2019-02-02T14:48:50.948Z,106.47
2019-02-02T14:53:56.451Z,113.87
2019-02-02T14:59:03.731Z,117.67
2019-02-02T15:04:08.893Z,113.73
2019-02-02T15:09:15.000Z,112.30
2019-02-02T15:14:20.151Z,108.33
2019-02-02T15:19:25.313Z,105.10
2019-02-02T15:24:31.050Z,99.80
2019-02-02T15:29:36.533Z,112.90
2019-02-02T15:34:42.067Z,107.03
2019-02-02T15:39:48.115Z,107.03
2019-02-02T15:44:53.530Z,110.73
2019-02-02T15:49:58.827Z,107.40
2019-02-02T15:55:04.826Z,105.97
2019-02-02T16:00:14.482Z,109.67
2019-02-02T16:05:20.042Z,117.60
2019-02-02T16:10:26.984Z,119.07
2019-02-02T16:15:34.378Z,123.13
2019-02-02T16:20:43.692Z,121.80
2019-02-02T16:25:48.908Z,128.67
2019-02-02T16:30:55.118Z,137.40
2019-02-02T16:36:00.681Z,125.33
2019-02-02T16:41:05.823Z,129.60
2019-02-02T16:46:11.339Z,128.97
2019-02-02T16:51:17.368Z,144.77
2019-02-02T16:56:22.471Z,148.87
2019-02-02T17:01:27.643Z,149.73
2019-02-02T17:06:32.800Z,164.33
2019-02-02T17:11:37.969Z,174.97
2019-02-02T17:16:43.697Z,143.93
2019-02-02T17:21:48.827Z,150.83
2019-02-02T17:26:53.979Z,155.03
2019-02-02T17:31:59.151Z,144.77
2019-02-02T17:37:05.307Z,141.20
2019-02-02T17:42:10.457Z,133.00
2019-02-02T17:47:16.885Z,143.77
2019-02-02T17:52:22.032Z,143.27
2019-02-02T17:57:27.187Z,155.43
2019-02-02T18:02:33.383Z,145.87
2019-02-02T18:07:38.530Z,150.27
2019-02-02T18:12:43.821Z,147.43
2019-02-02T18:17:50.223Z,136.90
2019-02-02T18:22:55.228Z,150.90
2019-02-02T18:28:00.745Z,139.40
2019-02-02T18:33:06.806Z,135.20
2019-02-02T18:38:11.880Z,146.60
2019-02-02T18:43:17.356Z,145.10
2019-02-02T18:48:22.505Z,145.33
2019-02-02T18:53:27.575Z,137.60
2019-02-02T18:58:33.172Z,129.37
2019-02-02T19:03:38.660Z,135.67
2019-02-02T19:08:44.065Z,121.00
2019-02-02T19:13:49.281Z,117.27
2019-02-02T19:18:55.112Z,130.57
2019-02-02T19:24:00.467Z,116.07
2019-02-02T19:29:07.120Z,127.10
2019-02-02T19:34:13.190Z,138.20
2019-02-02T19:39:19.088Z,125.90
2019-02-02T19:44:24.231Z,130.87
2019-02-02T19:49:29.712Z,136.20
2019-02-02T19:54:34.715Z,153.33
2019-02-02T19:59:39.798Z,144.97
2019-02-02T20:04:44.880Z,182.97
2019-02-02T20:09:49.971Z,146.17
2019-02-02T20:14:55.139Z,147.27
2019-02-02T20:20:00.282Z,139.37
2019-02-02T20:25:06.312Z,132.83
2019-02-02T20:30:16.735Z,139.43
2019-02-02T20:35:21.842Z,129.37
2019-02-02T20:40:27.198Z,128.07
2019-02-02T20:45:34.111Z,117.63
2019-02-02T20:50:39.311Z,124.40
2019-02-02T20:55:46.226Z,116.30
2019-02-02T21:00:51.332Z,116.30
2019-02-02T21:05:56.484Z,119.97
2019-02-02T21:11:01.655Z,132.20
2019-02-02T21:16:06.937Z,122.83
2019-02-02T21:21:13.615Z,128.43
2019-02-02T21:26:19.231Z,126.90
2019-02-02T21:31:24.716Z,124.60
2019-02-02T21:36:29.855Z,140.20
2019-02-02T21:41:34.939Z,177.63
2019-02-02T21:46:40.014Z,184.50
2019-02-02T21:51:46.228Z,137.43
2019-02-02T21:56:51.376Z,117.90
2019-02-02T22:01:56.594Z,205.77
2019-02-02T22:07:02.211Z,240.77
2019-02-02T22:12:07.738Z,184.83
2019-02-02T22:17:14.047Z,290.50
2019-02-02T22:22:19.479Z,227.53
2019-02-02T22:27:24.633Z,215.20
2019-02-02T22:32:30.211Z,231.23
2019-02-02T22:37:35.486Z,156.93
2019-02-02T22:42:40.911Z,143.60
2019-02-02T22:47:46.814Z,163.53
2019-02-02T22:52:52.314Z,136.37
2019-02-02T22:57:57.480Z,125.40
2019-02-02T23:03:02.817Z,97.80
2019-02-02T23:08:20.158Z,97.90
2019-02-02T23:14:18.791Z,101.10
2019-02-02T23:19:24.409Z,107.13
2019-02-02T23:24:30.172Z,110.63
2019-02-02T23:29:35.243Z,121.97
2019-02-02T23:34:40.429Z,116.50
2019-02-02T23:39:45.493Z,120.27
2019-02-02T23:44:50.978Z,139.23
2019-02-02T23:49:57.843Z,160.37
2019-02-02T23:55:02.995Z,146.53
